Obelix — 7JAX — position and weather

sailwx.info

Track history (hours):
 
Tides and Currents Weather Stations Pressure Air Temp Water Temp Dewpoint Dewpoint Depression Visibility Wind Speed Wind Dir Waves Ship Positions

Obelix

Last reported at 2014-Sep-17 13:32 UTC. Time now 2014-Sep-17 13:40 UTC.
Position N 34°32' E 135°19'.

Length 74 m; draft 4 m.

Type: Ship (hazmat cat D). MMSI: 432528000.

Date/timePositionNaut miles runAvg speedWind from/ knotsBaromVisibWave heightAir tempDewpointWater temp
2014-Sep-17 13:32N 34°32' E 135°19'0 0.0
2014-Sep-17 12:32N 34°32' E 135°19'0 0.0
2014-Sep-17 11:32N 34°32' E 135°19'0 0.0
2014-Sep-17 10:26N 34°32' E 135°19'5 5.4
2014-Sep-17 09:33N 34°33' E 135°13'1211.8
2014-Sep-17 08:32N 34°37' E 134°60'1110.7
2014-Sep-17 07:32N 34°41' E 134°48'2 0.1
2014-Sep-16 16:07N 34°43' E 134°47'0 0.2
2014-Sep-16 14:18N 34°42' E 134°47'811.0
2014-Sep-16 13:32N 34°37' E 134°39'4 0.1
2014-Sep-15 06:07N 34°40' E 134°43'5 0.4
2014-Sep-14 16:11N 34°43' E 134°48'5 0.5
2014-Sep-14 06:33N 34°39' E 134°52'1211.6
2014-Sep-14 05:33N 34°36' E 135°05'1211.7
2014-Sep-14 04:33N 34°34' E 135°19'5 5.2
2014-Sep-14 03:33N 34°33' E 135°25'0 0.0
2014-Sep-14 02:23N 34°33' E 135°25'0 0.0
2014-Sep-14 01:11N 34°33' E 135°25'5 1.4
2014-Sep-13 21:23N 34°32' E 135°19'0 0.0
2014-Sep-13 20:23N 34°32' E 135°19'0 0.0
2014-Sep-13 19:29N 34°32' E 135°19'0 0.0
2014-Sep-13 18:23N 34°32' E 135°19'0 0.0
2014-Sep-13 17:17N 34°32' E 135°19'0 0.0
2014-Sep-13 16:29N 34°32' E 135°19'0 0.0
2014-Sep-13 15:23N 34°32' E 135°19'0 0.0
2014-Sep-13 14:29N 34°32' E 135°19'0 0.0
2014-Sep-13 13:29N 34°32' E 135°19'0 0.0
2014-Sep-13 12:29N 34°32' E 135°19'0 0.0
2014-Sep-13 11:29N 34°32' E 135°19'0 0.0
2014-Sep-13 10:29N 34°32' E 135°19'0 0.0
2014-Sep-13 09:29N 34°32' E 135°19'0 0.1
2014-Sep-13 08:29N 34°32' E 135°19'0 0.0
2014-Sep-13 07:29N 34°32' E 135°19'0 0.0
2014-Sep-13 06:29N 34°32' E 135°19'0 0.0
2014-Sep-13 05:29N 34°32' E 135°19'0 0.0
2014-Sep-13 04:29N 34°32' E 135°19'0 0.0
2014-Sep-13 03:29N 34°32' E 135°19'0 0.0
2014-Sep-13 02:23N 34°32' E 135°19'0 0.1
2014-Sep-13 01:29N 34°32' E 135°19'4 3.9
2014-Sep-13 00:33N 34°33' E 135°15'1212.2
2014-Sep-12 23:32N 34°37' E 135°00'  
2014-Sep-10 06:23N 34°40' E 134°43'2 0.1
2014-Sep-09 10:33N 34°41' E 134°45'1211.6
2014-Sep-09 09:33N 34°33' E 134°35'28 1.0
2014-Sep-08 06:28N 34°07' E 134°46'  
Track history (hours):
 
Tides and Currents Weather Stations Pressure Air Temp Water Temp Dewpoint Dewpoint Depression Visibility Wind Speed Wind Dir Waves Ship Positions

Obelix

Last reported at 2014-Sep-17 13:32 UTC. Time now 2014-Sep-17 13:40 UTC.
Position N 34°32' E 135°19'.

Length 74 m; draft 4 m.

Type: Ship (hazmat cat D). MMSI: 432528000.

Date/timePositionNaut miles runAvg speedWind from/ knotsBaromVisibWave heightAir tempDewpointWater temp
2014-Sep-17 13:32N 34°32' E 135°19'0 0.0
2014-Sep-17 12:32N 34°32' E 135°19'0 0.0
2014-Sep-17 11:32N 34°32' E 135°19'0 0.0
2014-Sep-17 10:26N 34°32' E 135°19'5 5.4
2014-Sep-17 09:33N 34°33' E 135°13'1211.8
2014-Sep-17 08:32N 34°37' E 134°60'1110.7
2014-Sep-17 07:32N 34°41' E 134°48'2 0.1
2014-Sep-16 16:07N 34°43' E 134°47'0 0.2
2014-Sep-16 14:18N 34°42' E 134°47'811.0
2014-Sep-16 13:32N 34°37' E 134°39'4 0.1
2014-Sep-15 06:07N 34°40' E 134°43'5 0.4
2014-Sep-14 16:11N 34°43' E 134°48'5 0.5
2014-Sep-14 06:33N 34°39' E 134°52'1211.6
2014-Sep-14 05:33N 34°36' E 135°05'1211.7
2014-Sep-14 04:33N 34°34' E 135°19'5 5.2
2014-Sep-14 03:33N 34°33' E 135°25'0 0.0
2014-Sep-14 02:23N 34°33' E 135°25'0 0.0
2014-Sep-14 01:11N 34°33' E 135°25'5 1.4
2014-Sep-13 21:23N 34°32' E 135°19'0 0.0
2014-Sep-13 20:23N 34°32' E 135°19'0 0.0
2014-Sep-13 19:29N 34°32' E 135°19'0 0.0
2014-Sep-13 18:23N 34°32' E 135°19'0 0.0
2014-Sep-13 17:17N 34°32' E 135°19'0 0.0
2014-Sep-13 16:29N 34°32' E 135°19'0 0.0
2014-Sep-13 15:23N 34°32' E 135°19'0 0.0
2014-Sep-13 14:29N 34°32' E 135°19'0 0.0
2014-Sep-13 13:29N 34°32' E 135°19'0 0.0
2014-Sep-13 12:29N 34°32' E 135°19'0 0.0
2014-Sep-13 11:29N 34°32' E 135°19'0 0.0
2014-Sep-13 10:29N 34°32' E 135°19'0 0.0
2014-Sep-13 09:29N 34°32' E 135°19'0 0.1
2014-Sep-13 08:29N 34°32' E 135°19'0 0.0
2014-Sep-13 07:29N 34°32' E 135°19'0 0.0
2014-Sep-13 06:29N 34°32' E 135°19'0 0.0
2014-Sep-13 05:29N 34°32' E 135°19'0 0.0
2014-Sep-13 04:29N 34°32' E 135°19'0 0.0
2014-Sep-13 03:29N 34°32' E 135°19'0 0.0
2014-Sep-13 02:23N 34°32' E 135°19'0 0.1
2014-Sep-13 01:29N 34°32' E 135°19'4 3.9
2014-Sep-13 00:33N 34°33' E 135°15'1212.2
2014-Sep-12 23:32N 34°37' E 135°00'  
2014-Sep-10 06:23N 34°40' E 134°43'2 0.1
2014-Sep-09 10:33N 34°41' E 134°45'1211.6
2014-Sep-09 09:33N 34°33' E 134°35'28 1.0
2014-Sep-08 06:28N 34°07' E 134°46'  

Dump ship's entire track history